createdAt,value
2022-08-29T00:00:18.045Z,99500
2022-08-29T00:02:15.077Z,99500
2022-08-29T00:04:15.514Z,99500
2022-08-29T00:06:15.811Z,99500
2022-08-29T00:08:16.727Z,99500
2022-08-29T00:10:16.654Z,99500
2022-08-29T00:12:16.982Z,99500
2022-08-29T00:14:23.292Z,99490
2022-08-29T00:16:17.720Z,99490
2022-08-29T00:18:20.321Z,99490
2022-08-29T00:20:21.519Z,99490
2022-08-29T00:22:18.712Z,99490
2022-08-29T00:24:19.466Z,99490
2022-08-29T00:26:19.505Z,99490
2022-08-29T00:28:19.878Z,99490
2022-08-29T00:30:21.884Z,99480
2022-08-29T00:32:20.550Z,99480
2022-08-29T00:34:20.913Z,99480
2022-08-29T00:36:22.577Z,99480
2022-08-29T00:38:22.137Z,99480
2022-08-29T00:40:26.582Z,99470
2022-08-29T00:42:22.377Z,99470
2022-08-29T00:44:22.704Z,99470
2022-08-29T00:46:42.808Z,99470
2022-08-29T00:48:23.610Z,99470
2022-08-29T00:50:27.754Z,99460
2022-08-29T00:52:31.153Z,99460
2022-08-29T00:54:25.716Z,99460
2022-08-29T00:56:25.783Z,99460
2022-08-29T00:58:30.285Z,99460
2022-08-29T01:00:26.648Z,99460
2022-08-29T01:02:26.031Z,99460
2022-08-29T01:04:26.367Z,99450
2022-08-29T01:06:27.901Z,99450
2022-08-29T01:08:27.187Z,99450
2022-08-29T01:10:27.662Z,99450
2022-08-29T01:12:27.770Z,99450
2022-08-29T01:14:28.156Z,99440
2022-08-29T01:16:29.797Z,99440
2022-08-29T01:18:31.933Z,99440
2022-08-29T01:20:39.317Z,99440
2022-08-29T01:22:46.027Z,99440
2022-08-29T01:24:37.607Z,99430
2022-08-29T01:26:31.305Z,99430
2022-08-29T01:28:33.345Z,99430
2022-08-29T01:30:30.908Z,99430
2022-08-29T01:32:31.416Z,99430
2022-08-29T01:34:32.252Z,99430
2022-08-29T01:36:37.273Z,99430
2022-08-29T01:38:32.360Z,99430
2022-08-29T01:40:34.675Z,99420
2022-08-29T01:42:35.452Z,99420
2022-08-29T01:44:33.320Z,99410
2022-08-29T01:46:34.406Z,99400
2022-08-29T01:48:37.307Z,99390
2022-08-29T01:50:34.375Z,99390
2022-08-29T01:52:34.952Z,99390
2022-08-29T01:54:35.238Z,99390
2022-08-29T01:56:38.526Z,99390
2022-08-29T01:58:35.731Z,99390
2022-08-29T02:00:36.593Z,99390
2022-08-29T02:02:38.231Z,99390
2022-08-29T02:04:37.283Z,99390
2022-08-29T02:06:37.662Z,99390
2022-08-29T02:08:40.225Z,99380
2022-08-29T02:10:37.897Z,99380
2022-08-29T02:12:38.283Z,99380
2022-08-29T02:14:38.981Z,99380
2022-08-29T02:16:39.162Z,99370
2022-08-29T02:18:39.754Z,99370
2022-08-29T02:20:39.613Z,99370
2022-08-29T02:22:40.734Z,99360
2022-08-29T02:24:40.564Z,99360
2022-08-29T02:26:40.745Z,99360
2022-08-29T02:28:41.058Z,99360
2022-08-29T02:30:43.841Z,99360
2022-08-29T02:32:41.745Z,99350
2022-08-29T02:34:44.770Z,99350
2022-08-29T02:36:43.030Z,99350
2022-08-29T02:38:42.819Z,99350
2022-08-29T02:40:43.666Z,99350
2022-08-29T02:42:43.450Z,99350
2022-08-29T02:44:43.979Z,99340
2022-08-29T02:46:44.353Z,99340
2022-08-29T02:48:49.304Z,99340
2022-08-29T02:50:47.769Z,99340
2022-08-29T02:52:45.806Z,99340
2022-08-29T02:54:45.450Z,99340
2022-08-29T02:56:45.824Z,99330
2022-08-29T02:58:46.597Z,99330
2022-08-29T03:00:47.101Z,99330
2022-08-29T03:02:46.889Z,99330
2022-08-29T03:04:47.251Z,99330
2022-08-29T03:06:47.616Z,99330
2022-08-29T03:08:48.067Z,99330
2022-08-29T03:10:48.268Z,99320
2022-08-29T03:12:49.241Z,99320
2022-08-29T03:14:49.234Z,99310
2022-08-29T03:16:49.428Z,99310
2022-08-29T03:18:50.075Z,99310
2022-08-29T03:20:50.166Z,99310
2022-08-29T03:22:52.294Z,99310
2022-08-29T03:24:51.518Z,99310
2022-08-29T03:26:56.224Z,99310
2022-08-29T03:28:51.518Z,99310
2022-08-29T03:30:51.853Z,99310
2022-08-29T03:32:52.788Z,99300
2022-08-29T03:34:53.104Z,99290
2022-08-29T03:36:53.006Z,99290
2022-08-29T03:38:53.342Z,99290
2022-08-29T03:40:53.682Z,99290
2022-08-29T03:42:54.528Z,99290
2022-08-29T03:44:54.627Z,99290
2022-08-29T03:46:55.071Z,99290
2022-08-29T03:48:55.173Z,99280
2022-08-29T03:50:56.518Z,99280
2022-08-29T03:52:56.135Z,99280
2022-08-29T03:54:56.317Z,99280
2022-08-29T03:56:56.785Z,99280
2022-08-29T03:58:57.832Z,99280
2022-08-29T04:00:57.391Z,99270
2022-08-29T04:02:58.184Z,99260
2022-08-29T04:04:58.189Z,99260
2022-08-29T04:06:58.599Z,99270
2022-08-29T04:09:00.180Z,99260
2022-08-29T04:10:59.451Z,99270
2022-08-29T04:13:00.282Z,99270
2022-08-29T04:15:00.159Z,99270
2022-08-29T04:17:00.613Z,99270
2022-08-29T04:19:01.032Z,99260
2022-08-29T04:21:02.342Z,99260
2022-08-29T04:23:02.006Z,99260
2022-08-29T04:25:03.984Z,99260
2022-08-29T04:27:03.242Z,99260
2022-08-29T04:29:04.338Z,99260
2022-08-29T04:31:04.254Z,99260
2022-08-29T04:33:04.646Z,99240
2022-08-29T04:35:05.519Z,99240
2022-08-29T04:37:05.563Z,99230
2022-08-29T04:39:06.102Z,99230
2022-08-29T04:41:08.443Z,99230
2022-08-29T04:43:07.524Z,99230
2022-08-29T04:45:10.778Z,99230
2022-08-29T04:47:08.218Z,99230
2022-08-29T04:49:08.753Z,99230
2022-08-29T04:51:09.790Z,99230
2022-08-29T04:53:10.084Z,99230
2022-08-29T04:55:11.457Z,99230
2022-08-29T04:57:11.323Z,99230
2022-08-29T04:59:11.766Z,99230
2022-08-29T05:01:14.319Z,99210
2022-08-29T05:03:13.002Z,99210
2022-08-29T05:05:14.742Z,99220
2022-08-29T05:07:14.120Z,99220
2022-08-29T05:09:14.773Z,99210
2022-08-29T05:11:22.911Z,99210
2022-08-29T05:13:16.451Z,99210
2022-08-29T05:15:17.204Z,99210
2022-08-29T05:17:17.021Z,99200
2022-08-29T05:19:17.595Z,99190
2022-08-29T05:21:23.145Z,99190
2022-08-29T05:23:18.813Z,99180
2022-08-29T05:25:19.754Z,99180
2022-08-29T05:27:21.091Z,99180
2022-08-29T05:29:20.430Z,99160
2022-08-29T05:31:21.126Z,99160
2022-08-29T05:33:21.925Z,99170
2022-08-29T05:35:22.202Z,99180
2022-08-29T05:37:22.937Z,99180
2022-08-29T05:39:23.247Z,99180
2022-08-29T05:41:23.687Z,99170
2022-08-29T05:43:24.307Z,99170
2022-08-29T05:45:24.768Z,99170
2022-08-29T05:47:25.355Z,99170
2022-08-29T05:49:26.341Z,99170
2022-08-29T05:51:26.358Z,99160
2022-08-29T05:53:27.399Z,99160
2022-08-29T05:55:27.393Z,99160
2022-08-29T05:57:27.901Z,99160
2022-08-29T05:59:28.492Z,99150
2022-08-29T06:01:32.704Z,99150
2022-08-29T06:03:29.632Z,99140
2022-08-29T06:05:29.943Z,99130
2022-08-29T06:07:30.717Z,99120
2022-08-29T06:09:31.211Z,99120
2022-08-29T06:11:32.540Z,99110
2022-08-29T06:13:31.933Z,99110
2022-08-29T06:15:32.505Z,99100
2022-08-29T06:17:33.905Z,99100
2022-08-29T06:19:33.657Z,99100
2022-08-29T06:21:33.993Z,99100
2022-08-29T06:23:34.686Z,99100
2022-08-29T06:25:39.672Z,99100
2022-08-29T06:27:35.434Z,99110
2022-08-29T06:29:43.224Z,99110
2022-08-29T06:31:36.637Z,99120
2022-08-29T06:33:37.192Z,99120
2022-08-29T06:35:37.664Z,99120
2022-08-29T06:37:40.073Z,99120
2022-08-29T06:39:38.760Z,99120
2022-08-29T06:41:40.323Z,99120
2022-08-29T06:43:40.327Z,99120
2022-08-29T06:45:41.193Z,99120
2022-08-29T06:47:40.930Z,99130
2022-08-29T06:49:41.458Z,99130
2022-08-29T06:51:44.963Z,99130
2022-08-29T06:53:43.242Z,99130
2022-08-29T06:55:43.321Z,99140
2022-08-29T06:57:43.832Z,99140
2022-08-29T06:59:44.409Z,99140
2022-08-29T07:01:45.609Z,99140
2022-08-29T07:03:46.339Z,99140
2022-08-29T07:05:51.014Z,99140
2022-08-29T07:07:46.766Z,99140
2022-08-29T07:09:47.412Z,99140
2022-08-29T07:11:47.925Z,99130
2022-08-29T07:13:48.509Z,99130
2022-08-29T07:15:49.245Z,99130
2022-08-29T07:17:50.086Z,99130
2022-08-29T07:19:50.385Z,99130
2022-08-29T07:21:50.849Z,99130
2022-08-29T07:23:53.927Z,99130
2022-08-29T07:25:52.080Z,99130
2022-08-29T07:27:53.513Z,99130
2022-08-29T07:29:53.266Z,99130
2022-08-29T07:31:53.847Z,99130
2022-08-29T07:34:02.038Z,99130
2022-08-29T07:35:54.943Z,99130
2022-08-29T07:37:56.490Z,99130
2022-08-29T07:39:56.184Z,99130
2022-08-29T07:41:57.468Z,99130
2022-08-29T07:43:57.385Z,99130
2022-08-29T07:45:57.858Z,99130
2022-08-29T07:47:58.435Z,99130
2022-08-29T07:49:59.043Z,99120
2022-08-29T07:51:59.713Z,99110
2022-08-29T07:54:00.456Z,99110
2022-08-29T07:56:05.173Z,99110
2022-08-29T07:58:01.376Z,99110
2022-08-29T08:00:12.759Z,99110
2022-08-29T08:02:02.750Z,99110
2022-08-29T08:04:03.860Z,99110
2022-08-29T08:06:06.985Z,99100
2022-08-29T08:08:11.205Z,99100
2022-08-29T08:10:05.790Z,99100
2022-08-29T08:12:08.403Z,99100
2022-08-29T08:14:06.677Z,99100
2022-08-29T08:16:10.681Z,99100
2022-08-29T08:18:07.350Z,99100
2022-08-29T08:20:12.395Z,99100
2022-08-29T08:22:08.387Z,99100
2022-08-29T08:24:09.825Z,99100
2022-08-29T08:26:11.614Z,99100
2022-08-29T08:28:12.810Z,99100
2022-08-29T08:30:11.757Z,99100
2022-08-29T08:32:11.307Z,99100
2022-08-29T08:34:11.951Z,99100
2022-08-29T08:36:15.047Z,99100
2022-08-29T08:38:13.625Z,99100
2022-08-29T08:40:20.674Z,99100
2022-08-29T08:42:24.908Z,99100
2022-08-29T08:44:37.017Z,99100
2022-08-29T08:46:16.270Z,99100
2022-08-29T08:48:20.087Z,99100
2022-08-29T08:50:23.459Z,99100
2022-08-29T08:52:21.883Z,99100
2022-08-29T08:54:23.714Z,99100
2022-08-29T08:56:25.300Z,99100
2022-08-29T08:58:29.900Z,99100
2022-08-29T09:00:19.936Z,99100
2022-08-29T09:02:32.722Z,99100
2022-08-29T09:04:36.359Z,99100
2022-08-29T09:06:32.606Z,99100
2022-08-29T09:08:30.720Z,99100
2022-08-29T09:10:33.962Z,99100
2022-08-29T09:12:34.416Z,99100
2022-08-29T09:14:38.331Z,99100
2022-08-29T09:19:35.397Z,99100
2022-08-29T09:20:28.233Z,99100
2022-08-29T09:24:35.790Z,99100
2022-08-29T09:26:27.582Z,99100
2022-08-29T09:28:31.253Z,99100
2022-08-29T09:30:31.353Z,99100
2022-08-29T09:32:29.433Z,99090
2022-08-29T09:34:50.809Z,99090
2022-08-29T09:36:38.498Z,99090
2022-08-29T09:38:31.075Z,99090
2022-08-29T09:40:48.720Z,99090
2022-08-29T09:42:36.124Z,99090
2022-08-29T09:44:35.243Z,99090
2022-08-29T09:46:33.403Z,99090
2022-08-29T09:48:35.802Z,99090
2022-08-29T09:50:34.672Z,99080
2022-08-29T09:52:38.139Z,99080
2022-08-29T09:54:35.882Z,99080
2022-08-29T09:56:38.588Z,99080
2022-08-29T09:58:40.434Z,99080
2022-08-29T10:00:40.604Z,99080
2022-08-29T10:02:46.807Z,99080
2022-08-29T10:04:41.411Z,99080
2022-08-29T10:06:44.305Z,99070
2022-08-29T10:08:41.747Z,99070
2022-08-29T10:10:51.356Z,99070
2022-08-29T10:13:00.477Z,99070
2022-08-29T10:14:50.276Z,99060
2022-08-29T10:16:50.481Z,99060
2022-08-29T10:18:47.604Z,99060
2022-08-29T10:20:54.673Z,99060
2022-08-29T10:22:53.091Z,99060
2022-08-29T10:24:56.606Z,99070
2022-08-29T10:26:54.288Z,99070
2022-08-29T10:28:55.211Z,99070
2022-08-29T10:30:56.779Z,99070
2022-08-29T10:33:01.867Z,99070
2022-08-29T10:35:02.540Z,99070
2022-08-29T10:36:56.128Z,99070
2022-08-29T10:38:56.607Z,99070
2022-08-29T10:40:55.661Z,99070
2022-08-29T10:42:55.630Z,99070
2022-08-29T10:45:02.475Z,99070
2022-08-29T10:47:02.320Z,99070
2022-08-29T10:49:01.341Z,99070
2022-08-29T10:51:04.091Z,99070
2022-08-29T10:53:01.777Z,99060
2022-08-29T10:55:02.682Z,99060
2022-08-29T10:56:55.112Z,99060
2022-08-29T10:59:03.245Z,99060
2022-08-29T11:01:04.319Z,99060
2022-08-29T11:03:07.215Z,99060
2022-08-29T11:05:01.931Z,99060
2022-08-29T11:07:03.274Z,99060
2022-08-29T11:09:04.885Z,99060
2022-08-29T11:10:58.617Z,99060
2022-08-29T11:13:05.991Z,99060
2022-08-29T11:15:09.056Z,99060
2022-08-29T11:17:03.562Z,99060
2022-08-29T11:19:07.991Z,99060
2022-08-29T11:21:12.505Z,99060
2022-08-29T11:23:07.887Z,99060
2022-08-29T11:25:10.594Z,99040
2022-08-29T11:27:10.650Z,99040
2022-08-29T11:29:14.141Z,99040
2022-08-29T11:31:12.611Z,99040
2022-08-29T11:33:13.329Z,99040
2022-08-29T11:35:11.539Z,99040
2022-08-29T11:37:25.725Z,99040
2022-08-29T11:39:27.438Z,99040
2022-08-29T11:41:28.488Z,99040
2022-08-29T11:43:13.825Z,99040
2022-08-29T11:45:13.758Z,99040
2022-08-29T11:47:33.910Z,99040
2022-08-29T11:49:42.193Z,99030
2022-08-29T11:51:28.626Z,99040
2022-08-29T11:53:23.685Z,99040
2022-08-29T11:55:24.804Z,99040
2022-08-29T11:57:41.512Z,99040
2022-08-29T11:59:42.464Z,99040
2022-08-29T12:01:55.179Z,99040
2022-08-29T12:03:45.071Z,99040
2022-08-29T12:05:43.952Z,99040
2022-08-29T12:07:15.432Z,99040
2022-08-29T12:09:32.660Z,99040
2022-08-29T12:11:16.269Z,99040
2022-08-29T12:13:54.371Z,99040
2022-08-29T12:15:46.867Z,99040
2022-08-29T12:18:01.044Z,99040
2022-08-29T12:19:47.912Z,99040
2022-08-29T12:21:44.474Z,99040
2022-08-29T12:23:30.032Z,99040
2022-08-29T12:25:41.311Z,99040
2022-08-29T12:27:23.873Z,99040
2022-08-29T12:29:25.350Z,99040
2022-08-29T12:31:40.307Z,99040
2022-08-29T12:33:33.381Z,99040
2022-08-29T12:35:50.649Z,99040
2022-08-29T12:37:36.841Z,99040
2022-08-29T12:39:44.205Z,99030
2022-08-29T12:41:39.211Z,99030
2022-08-29T12:43:33.182Z,99030
2022-08-29T12:45:28.351Z,99030
2022-08-29T12:47:31.642Z,99030
2022-08-29T12:49:39.206Z,99030
2022-08-29T12:51:33.523Z,99030
2022-08-29T12:53:30.736Z,99030
2022-08-29T12:55:33.344Z,99030
2022-08-29T12:57:34.510Z,99010
2022-08-29T12:59:30.318Z,99010
2022-08-29T13:01:34.107Z,99010
2022-08-29T13:03:31.398Z,99010
2022-08-29T13:05:35.069Z,99000
2022-08-29T13:07:32.421Z,99000
2022-08-29T13:09:36.925Z,99000
2022-08-29T13:11:33.689Z,99000
2022-08-29T13:13:35.818Z,99000
2022-08-29T13:15:35.020Z,99000
2022-08-29T13:17:37.562Z,99000
2022-08-29T13:19:35.894Z,99000
2022-08-29T13:21:36.765Z,99000
2022-08-29T13:23:39.550Z,99000
2022-08-29T13:25:45.076Z,99000
2022-08-29T13:27:38.312Z,99000
2022-08-29T13:29:41.310Z,99000
2022-08-29T13:31:39.759Z,99000
2022-08-29T13:34:09.441Z,99010
2022-08-29T13:35:40.686Z,99010
2022-08-29T13:37:43.413Z,99010
2022-08-29T13:39:44.645Z,99010
2022-08-29T13:41:43.352Z,99010
2022-08-29T13:43:42.816Z,99010
2022-08-29T13:45:43.420Z,99010
2022-08-29T13:47:57.731Z,99010
2022-08-29T13:49:44.727Z,99010
2022-08-29T13:51:45.181Z,99010
2022-08-29T13:53:45.876Z,99010
2022-08-29T13:55:46.407Z,99010
2022-08-29T13:57:50.032Z,99010
2022-08-29T13:59:47.860Z,99010
2022-08-29T14:03:48.762Z,99010
2022-08-29T14:05:49.391Z,99010
2022-08-29T14:07:49.468Z,99010
2022-08-29T14:09:50.597Z,99010
2022-08-29T14:11:50.592Z,99010
2022-08-29T14:13:51.545Z,99010
2022-08-29T14:15:52.397Z,99010
2022-08-29T14:17:52.234Z,99010
2022-08-29T14:19:52.783Z,99010
2022-08-29T14:21:53.889Z,99010
2022-08-29T14:23:53.840Z,99010
2022-08-29T14:25:54.681Z,99010
2022-08-29T14:27:55.072Z,99010
2022-08-29T14:29:55.554Z,99010
2022-08-29T14:31:56.109Z,99010
2022-08-29T14:33:56.960Z,99010
2022-08-29T14:35:57.630Z,99010
2022-08-29T14:37:58.865Z,99010
2022-08-29T14:39:58.752Z,99010
2022-08-29T14:41:58.869Z,99010
2022-08-29T14:43:59.668Z,99010
2022-08-29T14:46:00.042Z,99010
2022-08-29T14:48:00.747Z,99010
2022-08-29T14:50:01.399Z,99010
2022-08-29T14:52:02.168Z,99010
2022-08-29T14:54:02.375Z,99010
2022-08-29T14:56:03.265Z,99010
2022-08-29T14:58:04.076Z,99010
2022-08-29T15:00:06.180Z,99010
2022-08-29T15:02:04.887Z,99010
2022-08-29T15:04:04.883Z,99010
2022-08-29T15:06:05.765Z,99010
2022-08-29T15:08:06.858Z,99020
2022-08-29T15:10:08.027Z,99020
2022-08-29T15:12:07.422Z,99020
2022-08-29T15:14:07.585Z,99020
2022-08-29T15:16:08.743Z,99020
2022-08-29T15:18:08.730Z,99020
2022-08-29T15:22:10.403Z,99020
2022-08-29T15:24:10.280Z,99020
2022-08-29T15:26:11.134Z,99020
2022-08-29T15:28:11.568Z,99020
2022-08-29T15:30:16.874Z,99020
2022-08-29T15:32:13.088Z,99020
2022-08-29T15:34:13.375Z,99020
2022-08-29T15:36:13.519Z,99020
2022-08-29T15:38:14.241Z,99020
2022-08-29T15:40:15.122Z,99020
2022-08-29T15:42:17.458Z,99030
2022-08-29T15:44:15.795Z,99030
2022-08-29T15:46:16.201Z,99030
2022-08-29T15:48:17.109Z,99030
2022-08-29T15:50:17.075Z,99030
2022-08-29T15:52:17.554Z,99030
2022-08-29T15:54:18.480Z,99030
2022-08-29T15:56:18.652Z,99030
2022-08-29T15:58:19.091Z,99030
2022-08-29T16:00:29.819Z,99030
2022-08-29T16:02:20.202Z,99030
2022-08-29T16:04:23.118Z,99030
2022-08-29T16:06:21.172Z,99030
2022-08-29T16:08:22.463Z,99030
2022-08-29T16:10:22.206Z,99030
2022-08-29T16:12:22.832Z,99030
2022-08-29T16:16:24.610Z,99030
2022-08-29T16:18:24.224Z,99030
2022-08-29T16:20:25.030Z,99030
2022-08-29T16:22:25.688Z,99030
2022-08-29T16:24:26.652Z,99030
2022-08-29T16:26:26.768Z,99030
2022-08-29T16:28:26.749Z,99030
2022-08-29T16:30:28.202Z,99030
2022-08-29T16:32:27.684Z,99030
2022-08-29T16:34:28.502Z,99020
2022-08-29T16:36:28.767Z,99020
2022-08-29T16:38:29.196Z,99020
2022-08-29T16:40:30.763Z,99020
2022-08-29T16:42:30.814Z,99020
2022-08-29T16:44:30.824Z,99020
2022-08-29T16:46:31.457Z,99020
2022-08-29T16:48:32.068Z,99020
2022-08-29T16:50:32.142Z,99020
2022-08-29T16:52:32.797Z,99020
2022-08-29T16:54:33.173Z,99020
2022-08-29T16:56:33.455Z,99020
2022-08-29T16:58:34.025Z,99020
2022-08-29T17:00:34.510Z,99020
2022-08-29T17:02:34.927Z,99020
2022-08-29T17:04:36.796Z,99020
2022-08-29T17:06:36.305Z,99020
2022-08-29T17:08:36.348Z,99020
2022-08-29T17:10:36.677Z,99020
2022-08-29T17:12:37.145Z,99020
2022-08-29T17:14:37.684Z,99020
2022-08-29T17:16:39.465Z,99020
2022-08-29T17:18:39.241Z,99020
2022-08-29T17:20:39.105Z,99020
2022-08-29T17:22:39.554Z,99030
2022-08-29T17:24:39.942Z,99030
2022-08-29T17:26:43.802Z,99030
2022-08-29T17:28:41.763Z,99030
2022-08-29T17:30:41.327Z,99030
2022-08-29T17:32:42.033Z,99030
2022-08-29T17:34:42.567Z,99030
2022-08-29T17:36:42.981Z,99030
2022-08-29T17:38:45.221Z,99030
2022-08-29T17:40:43.690Z,99030
2022-08-29T17:42:44.233Z,99030
2022-08-29T17:44:44.432Z,99030
2022-08-29T17:46:44.958Z,99030
2022-08-29T17:48:45.284Z,99030
2022-08-29T17:50:45.909Z,99030
2022-08-29T17:52:46.046Z,99030
2022-08-29T17:54:46.895Z,99030
2022-08-29T17:56:49.391Z,99020
2022-08-29T17:58:47.960Z,99020
2022-08-29T18:00:48.078Z,99010
2022-08-29T18:02:48.543Z,99010
2022-08-29T18:04:48.794Z,99010
2022-08-29T18:06:49.546Z,99010
2022-08-29T18:08:49.623Z,99010
2022-08-29T18:10:50.022Z,99010
2022-08-29T18:12:50.498Z,99010
2022-08-29T18:14:50.976Z,99010
2022-08-29T18:16:52.193Z,99010
2022-08-29T18:18:51.852Z,99010
2022-08-29T18:20:52.175Z,99010
2022-08-29T18:22:52.611Z,99000
2022-08-29T18:24:53.003Z,99000
2022-08-29T18:26:53.725Z,99000
2022-08-29T18:28:54.702Z,99000
2022-08-29T18:30:54.530Z,99000
2022-08-29T18:32:54.673Z,99000
2022-08-29T18:35:00.103Z,99000
2022-08-29T18:36:55.554Z,99000
2022-08-29T18:38:56.262Z,99000
2022-08-29T18:40:56.288Z,99000
2022-08-29T18:42:57.156Z,99000
2022-08-29T18:44:57.056Z,98990
2022-08-29T18:46:57.513Z,98980
2022-08-29T18:48:58.126Z,98980
2022-08-29T18:50:58.929Z,98980
2022-08-29T18:52:59.152Z,98980
2022-08-29T18:54:59.057Z,98970
2022-08-29T18:56:59.411Z,98970
2022-08-29T18:58:59.821Z,98960
2022-08-29T19:01:09.737Z,98960
2022-08-29T19:03:02.943Z,98960
2022-08-29T19:05:01.063Z,98960
2022-08-29T19:07:01.404Z,98960
2022-08-29T19:09:01.819Z,98960
2022-08-29T19:11:02.856Z,98960
2022-08-29T19:13:03.044Z,98960
2022-08-29T19:15:03.589Z,98960
2022-08-29T19:17:04.134Z,98960
2022-08-29T19:19:03.830Z,98960
2022-08-29T19:21:04.252Z,98960
2022-08-29T19:23:05.077Z,98960
2022-08-29T19:25:06.213Z,98960
2022-08-29T19:27:05.403Z,98960
2022-08-29T19:29:08.474Z,98960
2022-08-29T19:31:06.529Z,98960
2022-08-29T19:33:07.170Z,98960
2022-08-29T19:35:08.198Z,98950
2022-08-29T19:37:07.284Z,98950
2022-08-29T19:39:07.539Z,98950
2022-08-29T19:41:08.663Z,98950
2022-08-29T19:43:13.463Z,98950
2022-08-29T19:45:10.425Z,98950
2022-08-29T19:47:09.023Z,98950
2022-08-29T19:49:09.332Z,98950
2022-08-29T19:51:11.110Z,98950
2022-08-29T19:53:10.152Z,98950
2022-08-29T19:55:12.853Z,98950
2022-08-29T19:57:14.585Z,98950
2022-08-29T19:59:11.155Z,98950
2022-08-29T20:01:11.650Z,98950
2022-08-29T20:03:11.982Z,98950
2022-08-29T20:05:13.761Z,98950
2022-08-29T20:07:12.667Z,98950
2022-08-29T20:09:13.095Z,98950
2022-08-29T20:11:16.084Z,98950
2022-08-29T20:13:13.828Z,98950
2022-08-29T20:15:14.197Z,98950
2022-08-29T20:17:14.461Z,98950
2022-08-29T20:19:14.973Z,98950
2022-08-29T20:21:15.188Z,98950
2022-08-29T20:23:15.747Z,98950
2022-08-29T20:25:17.389Z,98950
2022-08-29T20:27:16.493Z,98950
2022-08-29T20:29:16.974Z,98950
2022-08-29T20:31:17.071Z,98950
2022-08-29T20:33:17.674Z,98950
2022-08-29T20:35:18.545Z,98950
2022-08-29T20:37:18.233Z,98950
2022-08-29T20:39:20.711Z,98940
2022-08-29T20:41:21.221Z,98940
2022-08-29T20:43:19.751Z,98940
2022-08-29T20:45:19.587Z,98940
2022-08-29T20:47:21.005Z,98940
2022-08-29T20:49:22.037Z,98930
2022-08-29T20:51:20.523Z,98930
2022-08-29T20:53:31.823Z,98930
2022-08-29T20:55:21.676Z,98930
2022-08-29T20:57:21.625Z,98930
2022-08-29T20:59:26.276Z,98930
2022-08-29T21:01:22.483Z,98920
2022-08-29T21:03:22.830Z,98920
2022-08-29T21:05:22.980Z,98920
2022-08-29T21:07:23.348Z,98920
2022-08-29T21:09:24.207Z,98920
2022-08-29T21:11:24.174Z,98920
2022-08-29T21:13:24.281Z,98920
2022-08-29T21:15:25.001Z,98920
2022-08-29T21:17:24.973Z,98920
2022-08-29T21:19:27.185Z,98920
2022-08-29T21:21:25.685Z,98920
2022-08-29T21:23:27.016Z,98920
2022-08-29T21:25:26.439Z,98910
2022-08-29T21:27:26.904Z,98910
2022-08-29T21:29:27.125Z,98900
2022-08-29T21:31:27.852Z,98890
2022-08-29T21:33:27.779Z,98890
2022-08-29T21:35:28.573Z,98890
2022-08-29T21:37:28.434Z,98890
2022-08-29T21:39:29.299Z,98890
2022-08-29T21:41:30.753Z,98880
2022-08-29T21:43:29.676Z,98880
2022-08-29T21:45:33.280Z,98880
2022-08-29T21:47:30.149Z,98880
2022-08-29T21:49:30.500Z,98880
2022-08-29T21:51:32.025Z,98880
2022-08-29T21:53:31.158Z,98880
2022-08-29T21:55:31.726Z,98880
2022-08-29T21:57:31.810Z,98880
2022-08-29T21:59:32.086Z,98880
2022-08-29T22:01:34.156Z,98880
2022-08-29T22:03:32.738Z,98880
2022-08-29T22:05:33.607Z,98880
2022-08-29T22:07:33.428Z,98880
2022-08-29T22:09:34.496Z,98880
2022-08-29T22:11:37.751Z,98880
2022-08-29T22:13:34.420Z,98880
2022-08-29T22:15:34.822Z,98870
2022-08-29T22:17:35.127Z,98870
2022-08-29T22:19:35.461Z,98870
2022-08-29T22:21:38.780Z,98870
2022-08-29T22:23:36.111Z,98870
2022-08-29T22:25:36.571Z,98870
2022-08-29T22:27:36.933Z,98870
2022-08-29T22:29:37.533Z,98860
2022-08-29T22:31:37.478Z,98860
2022-08-29T22:33:38.023Z,98860
2022-08-29T22:35:38.221Z,98860
2022-08-29T22:37:38.603Z,98860
2022-08-29T22:39:38.786Z,98860
2022-08-29T22:41:39.050Z,98860
2022-08-29T22:43:39.685Z,98860
2022-08-29T22:45:39.863Z,98860
2022-08-29T22:47:42.268Z,98860
2022-08-29T22:49:40.278Z,98860
2022-08-29T22:51:40.642Z,98860
2022-08-29T22:53:41.406Z,98860
2022-08-29T22:55:41.774Z,98860
2022-08-29T22:57:42.114Z,98860
2022-08-29T22:59:43.143Z,98850
2022-08-29T23:01:44.017Z,98850
2022-08-29T23:03:42.526Z,98850
2022-08-29T23:05:42.888Z,98850
2022-08-29T23:07:43.349Z,98850
2022-08-29T23:09:44.252Z,98850
2022-08-29T23:11:43.811Z,98850
2022-08-29T23:13:45.333Z,98850
2022-08-29T23:15:44.588Z,98850
2022-08-29T23:17:44.781Z,98840
2022-08-29T23:19:45.760Z,98840
2022-08-29T23:21:45.457Z,98840
2022-08-29T23:23:45.797Z,98840
2022-08-29T23:25:46.005Z,98840
2022-08-29T23:27:46.529Z,98840
2022-08-29T23:29:49.573Z,98840
2022-08-29T23:31:46.964Z,98840
2022-08-29T23:33:47.390Z,98830
2022-08-29T23:35:47.579Z,98820
2022-08-29T23:37:47.893Z,98820
2022-08-29T23:39:48.257Z,98820
2022-08-29T23:41:48.715Z,98820
2022-08-29T23:43:49.120Z,98810
2022-08-29T23:45:49.756Z,98810
2022-08-29T23:47:49.950Z,98810
2022-08-29T23:49:49.844Z,98810
2022-08-29T23:51:50.510Z,98810
2022-08-29T23:53:50.358Z,98810
2022-08-29T23:55:50.992Z,98810
2022-08-29T23:57:51.046Z,98810
2022-08-29T23:59:51.301Z,98810
